createdAt,value
2018-08-25T00:00:41.335Z,62
2018-08-25T00:01:31.876Z,62
2018-08-25T00:02:21.906Z,62
2018-08-25T00:03:11.791Z,62
2018-08-25T00:04:01.295Z,62
2018-08-25T00:04:52.223Z,62
2018-08-25T00:05:42.238Z,62
2018-08-25T00:06:31.771Z,62
2018-08-25T00:07:22.102Z,62
2018-08-25T00:08:11.621Z,62
2018-08-25T00:09:02.306Z,61.9
2018-08-25T00:09:52.248Z,61.9
2018-08-25T00:10:43.441Z,61.9
2018-08-25T00:11:32.626Z,61.9
2018-08-25T00:12:23.013Z,61.9
2018-08-25T00:31:18.647Z,61.8
2018-08-25T00:32:08.682Z,61.8
2018-08-25T00:32:58.744Z,61.8
2018-08-25T00:33:49.115Z,61.8
2018-08-25T00:34:38.878Z,61.8
2018-08-25T00:35:29.218Z,61.8
2018-08-25T00:36:19.264Z,61.8
2018-08-25T00:37:09.351Z,61.8
2018-08-25T00:37:59.443Z,61.8
2018-08-25T00:38:50.035Z,61.8
2018-08-25T00:39:39.844Z,61.7
2018-08-25T00:40:29.604Z,61.7
2018-08-25T00:41:20.222Z,61.7
2018-08-25T00:42:09.801Z,61.7
2018-08-25T00:42:58.975Z,61.7
2018-08-25T00:43:50.113Z,61.7
2018-08-25T00:44:39.666Z,61.7
2018-08-25T00:45:29.127Z,61.6
2018-08-25T00:46:20.555Z,61.6
2018-08-25T00:47:10.374Z,61.6
2018-08-25T00:48:00.665Z,61.6
2018-08-25T00:48:50.274Z,61.6
2018-08-25T00:49:40.096Z,61.6
2018-08-25T00:50:30.668Z,61.6
2018-08-25T00:51:20.705Z,61.6
2018-08-25T00:52:09.950Z,61.6
2018-08-25T00:53:00.003Z,61.6
2018-08-25T00:53:50.100Z,61.6
2018-08-25T00:54:39.871Z,61.6
2018-08-25T00:55:31.097Z,61.6
2018-08-25T00:56:20.595Z,61.6
2018-08-25T00:57:11.462Z,61.6
2018-08-25T00:58:00.373Z,61.6
2018-08-25T00:58:50.771Z,61.6
2018-08-25T00:59:40.557Z,61.6
2018-08-25T01:00:30.875Z,61.6
2018-08-25T01:01:21.243Z,61.5
2018-08-25T01:02:11.594Z,61.5
2018-08-25T01:03:00.778Z,61.6
2018-08-25T01:03:51.121Z,61.5
2018-08-25T01:04:41.464Z,61.5
2018-08-25T01:05:31.281Z,61.5
2018-08-25T01:06:20.755Z,61.5
2018-08-25T01:07:11.620Z,61.5
2018-08-25T01:08:02.110Z,61.5
2018-08-25T01:08:51.534Z,61.5
2018-08-25T01:09:41.593Z,61.4
2018-08-25T01:10:32.219Z,61.4
2018-08-25T01:11:21.712Z,61.4
2018-08-25T01:12:11.876Z,61.4
2018-08-25T01:13:02.155Z,61.4
2018-08-25T01:13:51.910Z,61.4
2018-08-25T01:14:42.309Z,61.4
2018-08-25T01:15:31.983Z,61.4
2018-08-25T01:16:22.379Z,61.4
2018-08-25T01:17:12.280Z,61.4
2018-08-25T01:18:02.495Z,61.4
2018-08-25T01:18:52.871Z,61.4
2018-08-25T01:19:42.197Z,61.4
2018-08-25T01:20:32.763Z,61.4
2018-08-25T01:21:21.945Z,61.4
2018-08-25T01:22:12.826Z,61.4
2018-08-25T01:23:03.442Z,61.4
2018-08-25T01:23:52.949Z,61.3
2018-08-25T01:24:42.751Z,61.4
2018-08-25T01:25:33.405Z,61.3
2018-08-25T01:26:23.183Z,61.3
2018-08-25T01:27:12.947Z,61.3
2018-08-25T01:28:02.733Z,61.3
2018-08-25T01:28:53.075Z,61.3
2018-08-25T01:29:42.867Z,61.3
2018-08-25T01:30:33.526Z,61.3
2018-08-25T01:31:23.281Z,61.3
2018-08-25T01:32:13.739Z,61.3
2018-08-25T01:33:03.905Z,61.3
2018-08-25T01:33:53.730Z,61.3
2018-08-25T01:34:43.528Z,61.3
2018-08-25T01:35:33.899Z,61.3
2018-08-25T01:36:23.937Z,61.3
2018-08-25T01:37:13.745Z,61.3
2018-08-25T01:38:04.637Z,61.3
2018-08-25T01:38:53.853Z,61.3
2018-08-25T01:39:44.240Z,61.2
2018-08-25T01:40:34.251Z,61.2
2018-08-25T01:41:24.340Z,61.2
2018-08-25T01:42:13.575Z,61.2
2018-08-25T01:43:04.778Z,61.2
2018-08-25T01:43:54.515Z,61.2
2018-08-25T01:44:45.159Z,61.2
2018-08-25T01:45:34.363Z,61.2
2018-08-25T01:46:24.747Z,61.2
2018-08-25T01:47:15.090Z,61.2
2018-08-25T01:48:04.565Z,61.1
2018-08-25T01:48:54.573Z,61.1
2018-08-25T01:49:44.445Z,61.1
2018-08-25T01:50:34.808Z,61.1
2018-08-25T01:51:24.559Z,61.1
2018-08-25T01:52:15.482Z,61.1
2018-08-25T01:53:05.216Z,61.1
2018-08-25T01:53:55.279Z,61.1
2018-08-25T01:54:45.382Z,61.1
2018-08-25T01:55:35.135Z,61.1
2018-08-25T01:56:25.235Z,61.1
2018-08-25T01:57:15.294Z,61.1
2018-08-25T01:58:05.374Z,61.1
2018-08-25T01:58:55.733Z,61.1
2018-08-25T01:59:45.489Z,61.1
2018-08-25T02:00:36.119Z,61.1
2018-08-25T02:01:25.896Z,61.1
2018-08-25T02:02:15.965Z,61.1
2018-08-25T02:03:06.044Z,61.1
2018-08-25T02:03:56.318Z,61
2018-08-25T02:04:45.879Z,61
2018-08-25T02:05:36.196Z,61
2018-08-25T02:06:26.327Z,61
2018-08-25T02:07:16.073Z,61
2018-08-25T02:08:06.413Z,61
2018-08-25T02:08:56.766Z,61
2018-08-25T02:09:46.583Z,61
2018-08-25T02:10:36.111Z,61
2018-08-25T02:11:26.372Z,60.9
2018-08-25T02:12:15.871Z,60.9
2018-08-25T02:13:06.816Z,60.9
2018-08-25T02:13:57.087Z,60.9
2018-08-25T02:14:46.348Z,60.9
2018-08-25T02:15:36.930Z,60.9
2018-08-25T02:16:27.349Z,60.9
2018-08-25T02:17:16.830Z,60.9
2018-08-25T02:18:06.895Z,60.9
2018-08-25T02:18:57.495Z,60.9
2018-08-25T02:19:47.296Z,60.9
2018-08-25T02:20:37.355Z,60.9
2018-08-25T02:21:27.138Z,60.9
2018-08-25T02:22:17.478Z,60.9
2018-08-25T02:23:07.852Z,60.9
2018-08-25T02:23:57.607Z,60.9
2018-08-25T02:24:47.374Z,60.9
2018-08-25T02:25:37.181Z,60.8
2018-08-25T02:26:28.119Z,60.8
2018-08-25T02:27:17.888Z,60.8
2018-08-25T02:28:08.518Z,60.8
2018-08-25T02:28:58.060Z,60.8
2018-08-25T02:29:47.044Z,60.8
2018-08-25T02:30:37.699Z,60.8
2018-08-25T02:31:27.173Z,60.8
2018-08-25T02:32:17.797Z,60.8
2018-08-25T02:33:08.068Z,60.8
2018-08-25T02:33:58.447Z,60.8
2018-08-25T02:34:48.504Z,60.8
2018-08-25T02:35:38.801Z,60.8
2018-08-25T02:36:28.595Z,60.8
2018-08-25T02:37:18.689Z,60.8
2018-08-25T02:38:08.476Z,60.8
2018-08-25T02:38:58.249Z,60.8
2018-08-25T02:39:48.820Z,60.8
2018-08-25T02:40:38.426Z,60.7
2018-08-25T02:41:28.736Z,60.7
2018-08-25T02:42:19.641Z,60.7
2018-08-25T02:43:09.125Z,60.7
2018-08-25T02:43:58.653Z,60.7
2018-08-25T02:44:49.021Z,60.7
2018-08-25T02:45:39.670Z,60.7
2018-08-25T02:46:29.060Z,60.7
2018-08-25T02:47:19.708Z,60.6
2018-08-25T02:48:09.546Z,60.7
2018-08-25T02:48:59.266Z,60.6
2018-08-25T02:49:49.364Z,60.7
2018-08-25T02:50:39.698Z,60.6
2018-08-25T02:51:29.579Z,60.6
2018-08-25T02:52:19.516Z,60.6
2018-08-25T02:53:09.889Z,60.6
2018-08-25T02:53:59.393Z,60.6
2018-08-25T02:54:50.254Z,60.6
2018-08-25T02:55:40.077Z,60.6
2018-08-25T02:56:30.495Z,60.6
2018-08-25T02:57:20.234Z,60.6
2018-08-25T02:58:09.151Z,60.6
2018-08-25T02:59:00.373Z,60.6
2018-08-25T02:59:50.446Z,60.6
2018-08-25T03:00:40.492Z,60.6
2018-08-25T03:01:30.063Z,60.6
2018-08-25T03:02:20.031Z,60.6
2018-08-25T03:03:10.393Z,60.6
2018-08-25T03:04:00.738Z,60.6
2018-08-25T03:04:50.824Z,60.6
2018-08-25T03:05:40.845Z,60.5
2018-08-25T03:06:30.941Z,60.5
2018-08-25T03:07:21.011Z,60.5
2018-08-25T03:08:11.363Z,60.5
2018-08-25T03:09:01.116Z,60.5
2018-08-25T03:09:51.495Z,60.5
2018-08-25T03:10:41.552Z,60.5
2018-08-25T03:11:31.059Z,60.5
2018-08-25T03:12:21.653Z,60.4
2018-08-25T03:13:10.863Z,60.4
2018-08-25T03:14:01.841Z,60.5
2018-08-25T03:14:51.359Z,60.4
2018-08-25T03:15:40.565Z,60.4
2018-08-25T03:16:31.729Z,60.4
2018-08-25T03:17:21.817Z,60.4
2018-08-25T03:18:11.828Z,60.4
2018-08-25T03:19:01.367Z,60.4
2018-08-25T03:19:51.713Z,60.4
2018-08-25T03:20:41.875Z,60.4
2018-08-25T03:21:31.574Z,60.4
2018-08-25T03:22:22.124Z,60.4
2018-08-25T03:23:12.507Z,60.4
2018-08-25T03:24:02.630Z,60.4
2018-08-25T03:24:52.654Z,60.4
2018-08-25T03:25:41.870Z,60.4
2018-08-25T03:26:33.272Z,60.4
2018-08-25T03:27:22.859Z,60.4
2018-08-25T03:28:12.894Z,60.4
2018-08-25T03:29:02.199Z,60.3
2018-08-25T03:29:52.233Z,60.3
2018-08-25T03:30:42.603Z,60.3
2018-08-25T03:31:32.386Z,60.3
2018-08-25T03:32:23.323Z,60.3
2018-08-25T03:33:13.251Z,60.3
2018-08-25T03:34:03.069Z,60.3
2018-08-25T03:34:52.569Z,60.3
2018-08-25T03:35:43.167Z,60.3
2018-08-25T03:36:32.961Z,60.3
2018-08-25T03:37:23.303Z,60.3
2018-08-25T03:38:13.662Z,60.3
2018-08-25T03:39:03.481Z,60.3
2018-08-25T03:39:53.527Z,60.3
2018-08-25T03:40:43.859Z,60.3
2018-08-25T03:41:33.089Z,60.3
2018-08-25T03:42:24.044Z,60.3
2018-08-25T03:43:13.533Z,60.3
2018-08-25T03:44:04.174Z,60.2
2018-08-25T03:44:53.356Z,60.2
2018-08-25T03:45:44.281Z,60.2
2018-08-25T03:46:33.477Z,60.2
2018-08-25T03:47:23.936Z,60.2
2018-08-25T03:48:13.877Z,60.2
2018-08-25T03:49:03.139Z,60.2
2018-08-25T03:49:54.630Z,60.2
2018-08-25T03:50:44.845Z,60.2
2018-08-25T03:51:33.859Z,60.1
2018-08-25T03:52:24.515Z,60.2
2018-08-25T03:53:14.609Z,60.1
2018-08-25T03:54:03.473Z,60.1
2018-08-25T03:54:54.985Z,60.1
2018-08-25T03:55:44.763Z,60.1
2018-08-25T03:56:34.864Z,60.1
2018-08-25T03:57:24.872Z,60.1
2018-08-25T03:58:14.151Z,60.1
2018-08-25T03:59:05.325Z,60.1
2018-08-25T03:59:54.508Z,60.1
2018-08-25T04:00:45.676Z,60.1
2018-08-25T04:01:36.357Z,60.1
2018-08-25T04:02:25.542Z,60.1
2018-08-25T04:03:15.076Z,60.1
2018-08-25T04:04:05.673Z,60.1
2018-08-25T04:04:55.469Z,60.1
2018-08-25T04:05:45.509Z,60.1
2018-08-25T04:06:35.807Z,60
2018-08-25T04:07:25.648Z,60
2018-08-25T04:08:15.729Z,60
2018-08-25T04:09:06.060Z,60
2018-08-25T04:09:54.959Z,60
2018-08-25T04:10:45.956Z,60
2018-08-25T04:11:36.258Z,60
2018-08-25T04:12:24.871Z,60
2018-08-25T04:13:16.378Z,59.9
2018-08-25T04:14:06.401Z,60
2018-08-25T04:14:57.212Z,59.9
2018-08-25T04:15:45.753Z,59.9
2018-08-25T04:16:35.768Z,60
2018-08-25T04:17:26.748Z,59.9
2018-08-25T04:18:16.517Z,59.9
2018-08-25T04:19:06.570Z,59.9
2018-08-25T04:19:56.663Z,59.9
2018-08-25T04:20:46.982Z,59.9
2018-08-25T04:21:36.492Z,59.9
2018-08-25T04:22:27.377Z,59.9
2018-08-25T04:23:16.614Z,59.9
2018-08-25T04:24:06.369Z,59.9
2018-08-25T04:24:57.014Z,59.9
2018-08-25T04:25:46.903Z,59.9
2018-08-25T04:26:37.162Z,59.9
2018-08-25T04:27:26.962Z,59.9
2018-08-25T04:28:17.284Z,59.9
2018-08-25T04:29:07.382Z,59.9
2018-08-25T04:29:57.399Z,59.9
2018-08-25T04:30:47.461Z,59.9
2018-08-25T04:31:37.012Z,59.8
2018-08-25T04:32:27.854Z,59.8
2018-08-25T04:33:18.127Z,59.8
2018-08-25T04:34:07.728Z,59.8
2018-08-25T04:34:58.095Z,59.8
2018-08-25T04:35:47.886Z,59.8
2018-08-25T04:36:38.187Z,59.8
2018-08-25T04:37:27.918Z,59.8
2018-08-25T04:38:18.082Z,59.8
2018-08-25T04:39:08.394Z,59.8
2018-08-25T04:39:58.417Z,59.8
2018-08-25T04:40:48.223Z,59.8
2018-08-25T04:41:38.000Z,59.8
2018-08-25T04:42:28.906Z,59.8
2018-08-25T05:00:26.969Z,59.6
2018-08-25T05:01:16.594Z,59.6
2018-08-25T05:02:07.069Z,59.6
2018-08-25T05:02:56.999Z,59.6
2018-08-25T05:03:47.085Z,59.6
2018-08-25T05:04:36.428Z,59.6
2018-08-25T05:05:27.106Z,59.6
2018-08-25T05:06:16.989Z,59.6
2018-08-25T05:07:07.298Z,59.6
2018-08-25T05:07:57.391Z,59.5
2018-08-25T05:08:47.109Z,59.5
2018-08-25T05:09:37.039Z,59.5
2018-08-25T05:10:27.594Z,59.5
2018-08-25T05:11:17.616Z,59.5
2018-08-25T05:12:07.409Z,59.5
2018-08-25T05:12:57.774Z,59.4
2018-08-25T05:13:47.210Z,59.5
2018-08-25T05:14:37.888Z,59.4
2018-08-25T05:15:27.969Z,59.4
2018-08-25T05:16:18.303Z,59.4
2018-08-25T05:17:08.070Z,59.4
2018-08-25T05:17:58.141Z,59.4
2018-08-25T05:18:47.861Z,59.4
2018-08-25T05:19:38.297Z,59.4
2018-08-25T05:20:28.040Z,59.4
2018-08-25T05:21:18.132Z,59.4
2018-08-25T05:22:09.173Z,59.4
2018-08-25T05:22:58.802Z,59.4
2018-08-25T05:23:48.855Z,59.4
2018-08-25T05:24:38.667Z,59.4
2018-08-25T05:25:28.975Z,59.4
2018-08-25T05:26:19.315Z,59.4
2018-08-25T05:27:08.553Z,59.4
2018-08-25T05:27:59.188Z,59.4
2018-08-25T05:28:49.220Z,59.4
2018-08-25T05:29:39.322Z,59.4
2018-08-25T05:30:29.067Z,59.3
2018-08-25T05:31:18.861Z,59.3
2018-08-25T05:32:09.526Z,59.3
2018-08-25T05:32:58.999Z,59.3
2018-08-25T05:33:49.065Z,59.3
2018-08-25T05:34:39.189Z,59.3
2018-08-25T05:35:29.209Z,59.3
2018-08-25T05:36:19.843Z,59.3
2018-08-25T05:37:09.569Z,59.3
2018-08-25T05:37:59.412Z,59.3
2018-08-25T05:38:49.708Z,59.3
2018-08-25T05:39:39.537Z,59.3
2018-08-25T05:40:29.588Z,59.3
2018-08-25T05:41:19.972Z,59.3
2018-08-25T05:42:09.992Z,59.3
2018-08-25T05:43:00.330Z,59.3
2018-08-25T05:43:50.400Z,59.3
2018-08-25T05:44:39.713Z,59.3
2018-08-25T05:45:30.013Z,59.2
2018-08-25T05:46:19.772Z,59.2
2018-08-25T05:47:10.924Z,59.2
2018-08-25T05:47:59.886Z,59.2
2018-08-25T05:48:49.988Z,59.2
2018-08-25T05:49:39.748Z,59.2
2018-08-25T05:50:30.629Z,59.2
2018-08-25T05:51:20.979Z,59.2
2018-08-25T05:52:11.101Z,59.1
2018-08-25T05:53:01.361Z,59.1
2018-08-25T05:53:50.911Z,59.1
2018-08-25T05:54:41.235Z,59.1
2018-08-25T05:55:31.289Z,59.1
2018-08-25T05:56:20.799Z,59.1
2018-08-25T05:57:11.159Z,59.1
2018-08-25T05:58:01.842Z,59.1
2018-08-25T05:58:51.605Z,59.1
2018-08-25T05:59:41.661Z,59.1
2018-08-25T06:00:31.424Z,59.1
2018-08-25T06:01:21.186Z,59.1
2018-08-25T06:02:11.314Z,59.1
2018-08-25T06:03:01.896Z,59.1
2018-08-25T06:03:51.634Z,59.1
2018-08-25T06:04:41.425Z,59.1
2018-08-25T06:05:31.799Z,59.1
2018-08-25T06:06:21.857Z,59
2018-08-25T06:07:11.891Z,59
2018-08-25T06:08:01.527Z,59
2018-08-25T06:08:52.376Z,59
2018-08-25T06:09:42.092Z,59
2018-08-25T06:10:32.448Z,59
2018-08-25T06:11:22.238Z,59
2018-08-25T06:12:12.275Z,59
2018-08-25T06:13:02.339Z,59
2018-08-25T06:13:52.728Z,59
2018-08-25T06:14:43.009Z,58.9
2018-08-25T06:15:32.808Z,58.9
2018-08-25T06:16:22.294Z,58.9
2018-08-25T06:17:12.930Z,58.9
2018-08-25T06:18:02.738Z,58.9
2018-08-25T06:18:53.034Z,58.9
2018-08-25T06:19:43.148Z,58.9
2018-08-25T06:20:32.938Z,58.9
2018-08-25T06:21:22.737Z,58.9
2018-08-25T06:22:13.049Z,58.9
2018-08-25T06:23:03.170Z,58.9
2018-08-25T06:23:52.395Z,58.9
2018-08-25T06:24:42.973Z,58.9
2018-08-25T06:25:33.021Z,58.9
2018-08-25T06:26:22.805Z,58.8
2018-08-25T06:27:13.808Z,58.9
2018-08-25T06:28:03.783Z,58.8
2018-08-25T06:28:53.763Z,58.8
2018-08-25T06:29:44.482Z,58.8
2018-08-25T06:30:33.704Z,58.8
2018-08-25T06:31:23.811Z,58.8
2018-08-25T06:32:13.556Z,58.8
2018-08-25T06:33:04.158Z,58.8
2018-08-25T06:33:53.932Z,58.8
2018-08-25T06:34:43.997Z,58.8
2018-08-25T06:35:33.490Z,58.8
2018-08-25T06:36:24.434Z,58.8
2018-08-25T06:37:14.215Z,58.8
2018-08-25T06:38:04.418Z,58.8
2018-08-25T06:38:54.566Z,58.8
2018-08-25T06:39:44.654Z,58.8
2018-08-25T06:40:34.126Z,58.8
2018-08-25T06:41:24.208Z,58.8
2018-08-25T06:42:14.569Z,58.7
2018-08-25T06:43:04.355Z,58.7
2018-08-25T06:43:54.681Z,58.7
2018-08-25T06:44:44.487Z,58.7
2018-08-25T06:45:34.821Z,58.7
2018-08-25T06:46:25.206Z,58.7
2018-08-25T06:47:14.969Z,58.7
2018-08-25T06:48:05.572Z,58.7
2018-08-25T06:48:55.384Z,58.7
2018-08-25T06:49:44.574Z,58.7
2018-08-25T06:50:35.796Z,58.7
2018-08-25T06:51:25.554Z,58.6
2018-08-25T06:52:15.626Z,58.7
2018-08-25T06:53:05.501Z,58.6
2018-08-25T06:53:54.898Z,58.6
2018-08-25T06:54:44.675Z,58.6
2018-08-25T06:55:35.572Z,58.6
2018-08-25T06:56:25.669Z,58.6
2018-08-25T06:57:15.458Z,58.6
2018-08-25T07:04:46.254Z,58.5
2018-08-25T07:06:26.712Z,58.5
2018-08-25T07:07:16.538Z,58.5
2018-08-25T07:08:06.550Z,58.5
2018-08-25T07:08:56.625Z,58.5
2018-08-25T07:09:47.248Z,58.5
2018-08-25T07:10:36.992Z,58.5
2018-08-25T07:11:26.530Z,58.5
2018-08-25T07:12:16.855Z,58.5
2018-08-25T07:13:07.166Z,58.5
2018-08-25T07:13:57.263Z,58.5
2018-08-25T07:14:47.608Z,58.4
2018-08-25T07:15:37.394Z,58.4
2018-08-25T07:16:26.582Z,58.4
2018-08-25T07:17:17.222Z,58.4
2018-08-25T07:18:07.302Z,58.4
2018-08-25T07:18:57.829Z,58.4
2018-08-25T07:19:47.426Z,58.4
2018-08-25T07:20:37.501Z,58.4
2018-08-25T07:21:27.359Z,58.4
2018-08-25T07:22:17.969Z,58.4
2018-08-25T07:23:08.003Z,58.4
2018-08-25T07:23:56.629Z,58.4
2018-08-25T07:24:47.871Z,58.4
2018-08-25T07:25:37.326Z,58.4
2018-08-25T07:26:27.535Z,58.4
2018-08-25T07:27:17.729Z,58.4
2018-08-25T07:28:08.357Z,58.4
2018-08-25T07:28:58.407Z,58.4
2018-08-25T07:29:47.697Z,58.4
2018-08-25T07:30:38.228Z,58.4
2018-08-25T07:31:28.293Z,58.3
2018-08-25T07:32:19.813Z,58.3
2018-08-25T07:33:08.503Z,58.3
2018-08-25T07:33:58.534Z,58.3
2018-08-25T07:34:49.144Z,58.3
2018-08-25T07:35:38.908Z,58.3
2018-08-25T07:36:28.696Z,58.3
2018-08-25T07:37:18.488Z,58.3
2018-08-25T07:38:09.380Z,58.3
2018-08-25T07:38:58.328Z,58.3
2018-08-25T07:39:48.973Z,58.3
2018-08-25T07:40:39.578Z,58.3
2018-08-25T07:41:29.443Z,58.3
2018-08-25T07:42:18.966Z,58.3
2018-08-25T07:43:09.540Z,58.3
2018-08-25T07:43:59.652Z,58.2
2018-08-25T07:44:49.440Z,58.2
2018-08-25T07:45:39.394Z,58.2
2018-08-25T07:46:29.220Z,58.2
2018-08-25T07:47:19.551Z,58.2
2018-08-25T07:48:09.934Z,58.2
2018-08-25T07:48:59.433Z,58.2
2018-08-25T07:49:49.722Z,58.2
2018-08-25T07:50:39.789Z,58.2
2018-08-25T07:51:30.398Z,58.2
2018-08-25T07:52:19.124Z,58.2
2018-08-25T07:53:10.340Z,58.2
2018-08-25T07:54:00.118Z,58.1
2018-08-25T07:54:49.864Z,58.1
2018-08-25T07:55:40.188Z,58.1
2018-08-25T07:56:30.229Z,58.1
2018-08-25T07:57:20.538Z,58.1
2018-08-25T07:58:09.916Z,58.1
2018-08-25T07:59:00.908Z,58.1
2018-08-25T07:59:50.489Z,58.1
2018-08-25T08:00:40.875Z,58.1
2018-08-25T08:01:30.612Z,58.1
2018-08-25T08:02:20.718Z,58.1
2018-08-25T08:03:10.792Z,58.1
2018-08-25T08:04:00.841Z,58.1
2018-08-25T08:04:51.370Z,58.1
2018-08-25T08:05:42.209Z,58.1
2018-08-25T08:06:30.484Z,58.1
2018-08-25T08:07:21.373Z,58.1
2018-08-25T08:08:11.295Z,58
2018-08-25T08:09:01.274Z,58.1
2018-08-25T08:09:51.587Z,58
2018-08-25T08:10:41.694Z,58
2018-08-25T08:11:30.955Z,58
2018-08-25T08:12:23.120Z,58
2018-08-25T08:13:11.605Z,58
2018-08-25T08:14:01.961Z,58
2018-08-25T08:14:51.419Z,58
2018-08-25T08:15:41.834Z,57.9
2018-08-25T08:16:32.123Z,58
2018-08-25T08:17:21.874Z,58
2018-08-25T08:18:11.703Z,57.9
2018-08-25T08:19:02.289Z,57.9
2018-08-25T08:19:52.372Z,57.9
2018-08-25T08:20:41.946Z,57.9
2018-08-25T08:21:31.653Z,57.9
2018-08-25T08:22:21.789Z,57.9
2018-08-25T08:23:12.028Z,57.9
2018-08-25T08:24:01.546Z,57.9
2018-08-25T08:24:52.758Z,57.9
2018-08-25T08:25:42.287Z,57.9
2018-08-25T08:26:32.296Z,57.9
2018-08-25T08:27:22.900Z,57.9
2018-08-25T08:28:13.361Z,57.9
2018-08-25T08:29:02.823Z,57.9
2018-08-25T08:29:53.118Z,57.9
2018-08-25T08:30:42.917Z,57.9
2018-08-25T08:31:32.969Z,57.9
2018-08-25T08:32:23.053Z,57.8
2018-08-25T08:33:14.326Z,57.8
2018-08-25T08:34:03.196Z,57.8
2018-08-25T08:34:52.956Z,57.8
2018-08-25T08:35:43.312Z,57.8
2018-08-25T08:36:33.386Z,57.8
2018-08-25T08:38:13.823Z,57.8
2018-08-25T08:46:34.167Z,57.7
2018-08-25T08:47:24.583Z,57.7
2018-08-25T08:48:14.299Z,57.7
2018-08-25T08:49:04.405Z,57.7
2018-08-25T08:49:54.706Z,57.7
2018-08-25T08:50:44.487Z,57.6
2018-08-25T08:51:35.112Z,57.7
2018-08-25T08:52:25.157Z,57.7
2018-08-25T08:53:14.384Z,57.7
2018-08-25T08:54:04.265Z,57.6
2018-08-25T08:54:55.104Z,57.6
2018-08-25T08:55:45.166Z,57.6
2018-08-25T08:56:35.223Z,57.6
2018-08-25T08:57:24.996Z,57.6
2018-08-25T08:58:15.595Z,57.6
2018-08-25T09:14:58.661Z,57.6
2018-08-25T09:15:48.165Z,57.7
2018-08-25T09:17:28.622Z,57.8
2018-08-25T09:18:19.629Z,57.9
2018-08-25T09:19:09.279Z,57.9
2018-08-25T09:19:59.321Z,58
2018-08-25T09:20:48.829Z,58.1
2018-08-25T09:21:39.462Z,58.1
2018-08-25T09:22:28.404Z,58.1
2018-08-25T09:23:19.634Z,58.2
2018-08-25T09:24:09.676Z,58.3
2018-08-25T09:24:59.266Z,58.3
2018-08-25T09:25:49.796Z,58.4
2018-08-25T09:26:39.294Z,58.4
2018-08-25T09:27:30.609Z,58.4
2018-08-25T09:28:19.762Z,58.5
2018-08-25T09:29:59.589Z,58.6
2018-08-25T09:30:50.204Z,58.6
2018-08-25T09:31:40.295Z,58.8
2018-08-25T09:32:29.765Z,58.8
2018-08-25T09:33:19.665Z,58.9
2018-08-25T09:34:09.936Z,58.9
2018-08-25T09:35:00.262Z,58.9
2018-08-25T09:35:51.770Z,59
2018-08-25T09:36:43.134Z,59.1
2018-08-25T09:37:30.742Z,59.2
2018-08-25T09:38:20.227Z,59.3
2018-08-25T09:39:10.612Z,59.3
2018-08-25T09:40:00.367Z,59.3
2018-08-25T09:40:50.179Z,59.4
2018-08-25T09:41:41.018Z,59.5
2018-08-25T09:42:30.565Z,59.6
2018-08-25T09:43:20.334Z,59.7
2018-08-25T09:44:10.683Z,59.7
2018-08-25T09:45:01.015Z,59.8
2018-08-25T09:45:51.883Z,59.8
2018-08-25T09:46:41.164Z,59.9
2018-08-25T09:47:30.650Z,59.9
2018-08-25T09:48:21.355Z,60
2018-08-25T09:49:11.644Z,60.1
2018-08-25T09:50:01.409Z,60.1
2018-08-25T09:50:52.035Z,60.1
2018-08-25T09:51:41.849Z,60.2
2018-08-25T09:52:31.925Z,60.3
2018-08-25T09:53:21.831Z,60.3
2018-08-25T09:54:12.025Z,60.4
2018-08-25T09:55:01.860Z,60.4
2018-08-25T09:55:51.617Z,60.5
2018-08-25T09:56:41.361Z,60.6
2018-08-25T09:57:32.271Z,60.6
2018-08-25T09:58:22.337Z,60.7
2018-08-25T09:59:12.712Z,60.7
2018-08-25T10:00:02.240Z,60.8
2018-08-25T10:00:52.557Z,60.9
2018-08-25T10:01:42.070Z,60.9
2018-08-25T10:02:32.678Z,60.9
2018-08-25T10:03:22.880Z,61.1
2018-08-25T10:04:12.282Z,61.1
2018-08-25T10:05:02.576Z,61.1
2018-08-25T10:05:53.002Z,61.2
2018-08-25T10:06:42.733Z,61.3
2018-08-25T10:07:32.833Z,61.3
2018-08-25T10:08:23.160Z,61.4
2018-08-25T10:09:12.935Z,61.4
2018-08-25T10:10:03.544Z,61.5
2018-08-25T10:10:54.104Z,61.6
2018-08-25T10:11:43.418Z,61.7
2018-08-25T10:12:33.507Z,61.8
2018-08-25T10:13:23.271Z,61.8
2018-08-25T10:14:13.618Z,61.9
2018-08-25T10:15:04.008Z,61.9
2018-08-25T10:15:53.472Z,62
2018-08-25T10:16:43.952Z,62.1
2018-08-25T10:17:33.125Z,62.2
2018-08-25T10:18:23.700Z,62.2
2018-08-25T10:19:13.989Z,62.3
2018-08-25T10:20:03.529Z,62.4
2018-08-25T10:20:53.828Z,62.4
2018-08-25T10:21:43.047Z,62.5
2018-08-25T10:22:34.481Z,62.6
2018-08-25T10:23:23.584Z,62.6
2018-08-25T10:24:13.875Z,62.7
2018-08-25T10:25:04.770Z,62.8
2018-08-25T10:25:54.762Z,62.9
2018-08-25T10:26:44.697Z,62.9
2018-08-25T10:27:34.087Z,63.1
2018-08-25T10:28:24.436Z,63.1
2018-08-25T10:29:14.822Z,63.2
2018-08-25T10:30:05.141Z,63.3
2018-08-25T10:30:54.364Z,63.4
2018-08-25T10:31:44.139Z,63.4
2018-08-25T10:32:34.452Z,63.5
2018-08-25T10:33:24.539Z,63.5
2018-08-25T10:34:14.904Z,63.6
2018-08-25T10:35:05.280Z,63.6
2018-08-25T10:35:55.883Z,63.6
2018-08-25T10:36:45.647Z,63.6
2018-08-25T10:37:34.870Z,63.6
2018-08-25T10:38:25.782Z,63.7
2018-08-25T10:39:15.569Z,63.7
2018-08-25T10:40:05.665Z,63.8
2018-08-25T10:40:55.141Z,63.7
2018-08-25T10:41:46.773Z,63.7
2018-08-25T10:42:35.571Z,63.8
2018-08-25T10:43:25.629Z,63.8
2018-08-25T10:44:16.014Z,63.8
2018-08-25T10:45:05.801Z,63.8
2018-08-25T10:45:55.528Z,63.8
2018-08-25T10:46:45.034Z,63.8
2018-08-25T10:47:35.932Z,63.8
2018-08-25T10:48:26.014Z,63.8
2018-08-25T10:49:16.153Z,63.8
2018-08-25T10:50:06.163Z,63.8
2018-08-25T10:50:56.198Z,63.8
2018-08-25T10:51:46.268Z,63.8
2018-08-25T10:52:36.967Z,63.8
2018-08-25T10:53:26.135Z,63.8
2018-08-25T10:54:16.776Z,63.8
2018-08-25T10:55:06.535Z,63.8
2018-08-25T10:55:56.892Z,63.9
2018-08-25T10:56:46.970Z,63.9
2018-08-25T10:57:37.517Z,63.9
2018-08-25T10:58:26.795Z,63.9
2018-08-25T10:59:17.109Z,64
2018-08-25T11:00:07.581Z,64
2018-08-25T11:00:59.623Z,64.1
2018-08-25T11:01:46.817Z,64.1
2018-08-25T11:02:36.551Z,64.1
2018-08-25T11:03:27.748Z,64.2
2018-08-25T11:04:17.585Z,64.3
2018-08-25T11:05:07.597Z,64.3
2018-08-25T11:05:57.429Z,64.4
2018-08-25T11:06:47.732Z,64.4
2018-08-25T11:07:37.755Z,64.5
2018-08-25T11:08:27.321Z,64.6
2018-08-25T11:09:17.947Z,64.6
2018-08-25T11:10:07.441Z,64.6
2018-08-25T11:10:57.511Z,64.7
2018-08-25T11:11:47.927Z,64.8
2018-08-25T11:12:37.909Z,64.8
2018-08-25T11:13:28.007Z,64.8
2018-08-25T11:14:18.340Z,64.9
2018-08-25T11:15:08.114Z,64.9
2018-08-25T11:15:58.175Z,64.9
2018-08-25T11:16:48.241Z,65.1
2018-08-25T11:17:38.296Z,65.1
2018-08-25T11:18:28.661Z,65.1
2018-08-25T11:19:18.728Z,65.3
2018-08-25T11:20:08.848Z,65.3
2018-08-25T11:20:58.560Z,65.3
2018-08-25T11:21:48.051Z,65.4
2018-08-25T11:22:38.779Z,65.4
2018-08-25T11:23:28.785Z,65.4
2018-08-25T11:24:17.953Z,65.5
2018-08-25T11:25:08.925Z,65.6
2018-08-25T11:25:58.971Z,65.6
2018-08-25T11:26:49.310Z,65.6
2018-08-25T11:27:39.148Z,65.8
2018-08-25T11:28:28.586Z,65.8
2018-08-25T11:29:20.504Z,65.8
2018-08-25T11:30:09.007Z,65.9
2018-08-25T11:30:58.770Z,65.9
2018-08-25T11:31:49.945Z,66.1
2018-08-25T11:32:39.472Z,66.1
2018-08-25T11:33:29.259Z,66.1
2018-08-25T11:34:19.880Z,66.2
2018-08-25T11:35:09.931Z,66.3
2018-08-25T11:35:59.458Z,66.3
2018-08-25T11:36:49.761Z,66.3
2018-08-25T11:37:41.459Z,66.4
2018-08-25T11:38:29.931Z,66.5
2018-08-25T11:39:20.005Z,66.5
2018-08-25T11:40:10.368Z,66.6
2018-08-25T11:41:00.459Z,66.6
2018-08-25T11:41:50.241Z,66.7
2018-08-25T11:42:39.971Z,66.8
2018-08-25T11:43:30.586Z,66.8
2018-08-25T11:44:20.104Z,66.8
2018-08-25T11:45:10.188Z,66.8
2018-08-25T11:46:00.513Z,66.9
2018-08-25T11:46:50.868Z,66.9
2018-08-25T11:47:40.104Z,66.9
2018-08-25T11:48:30.706Z,67
2018-08-25T11:49:19.666Z,67.1
2018-08-25T11:50:10.840Z,67.1
2018-08-25T11:51:01.221Z,67.1
2018-08-25T11:51:50.992Z,67.2
2018-08-25T11:52:41.396Z,67.3
2018-08-25T11:53:30.845Z,67.3
2018-08-25T11:54:21.473Z,67.3
2018-08-25T11:55:11.547Z,67.4
2018-08-25T11:56:01.922Z,67.4
2018-08-25T11:56:51.376Z,67.4
2018-08-25T11:57:41.153Z,67.5
2018-08-25T11:58:31.516Z,67.5
2018-08-25T11:59:21.278Z,67.6
2018-08-25T12:00:11.963Z,67.6
2018-08-25T12:01:01.713Z,67.6
2018-08-25T12:01:51.740Z,67.6
2018-08-25T12:02:42.135Z,67.7
2018-08-25T12:03:31.498Z,67.8
2018-08-25T12:04:20.827Z,67.8
2018-08-25T12:05:12.333Z,67.8
2018-08-25T12:06:02.138Z,67.8
2018-08-25T12:06:52.750Z,67.9
2018-08-25T12:07:41.946Z,67.9
2018-08-25T12:08:32.589Z,67.9
2018-08-25T12:09:22.826Z,67.9
2018-08-25T12:10:12.692Z,68
2018-08-25T12:11:02.814Z,68
2018-08-25T12:11:52.893Z,68.1
2018-08-25T12:12:42.589Z,68.1
2018-08-25T12:13:32.386Z,68.1
2018-08-25T12:14:23.047Z,68.1
2018-08-25T12:15:13.080Z,68.1
2018-08-25T12:16:03.253Z,68.1
2018-08-25T12:16:53.232Z,68.2
2018-08-25T12:17:42.742Z,68.2
2018-08-25T12:18:33.090Z,68.2